createdAt,value
2022-10-29T00:00:49.183Z,14.98
2022-10-29T00:03:36.155Z,14.99
2022-10-29T00:06:08.835Z,15.02
2022-10-29T00:08:37.360Z,15.02
2022-10-29T00:11:15.006Z,15.04
2022-10-29T00:13:42.418Z,15.09
2022-10-29T00:16:17.525Z,15.04
2022-10-29T00:18:44.289Z,15.04
2022-10-29T00:21:13.634Z,15.07
2022-10-29T00:23:39.806Z,15.03
2022-10-29T00:26:06.366Z,15.04
2022-10-29T00:28:33.201Z,15.03
2022-10-29T00:31:08.183Z,15.03
2022-10-29T00:33:34.483Z,15.02
2022-10-29T00:36:06.361Z,15.03
2022-10-29T00:38:34.428Z,15.02
2022-10-29T00:41:01.869Z,15.06
2022-10-29T00:43:28.501Z,15.03
2022-10-29T00:46:06.673Z,15.05
2022-10-29T00:48:40.230Z,15.07
2022-10-29T00:51:10.943Z,15.09
2022-10-29T00:53:42.102Z,15.09
2022-10-29T00:56:08.750Z,15.11
2022-10-29T00:58:35.002Z,15.12
2022-10-29T01:01:01.875Z,15.10
2022-10-29T01:03:28.319Z,15.11
2022-10-29T01:05:54.770Z,15.14
2022-10-29T01:08:21.416Z,15.15
2022-10-29T01:11:16.978Z,15.18
2022-10-29T01:14:15.278Z,15.23
2022-10-29T01:17:04.190Z,15.32
2022-10-29T01:19:47.196Z,15.34
2022-10-29T01:22:42.254Z,15.43
2022-10-29T01:25:21.566Z,15.49
2022-10-29T01:27:55.107Z,15.53
2022-10-29T01:30:55.604Z,15.62
2022-10-29T01:33:40.528Z,15.73
2022-10-29T01:36:36.770Z,15.77
2022-10-29T01:39:02.999Z,15.82
2022-10-29T01:41:48.780Z,15.87
2022-10-29T01:44:18.054Z,15.94
2022-10-29T01:46:51.587Z,15.92
2022-10-29T01:49:23.918Z,15.94
2022-10-29T01:51:51.794Z,15.94
2022-10-29T01:54:18.144Z,15.96
2022-10-29T01:56:53.400Z,15.89
2022-10-29T01:59:35.236Z,15.85
2022-10-29T02:02:55.988Z,15.82
2022-10-29T02:05:50.953Z,15.81
2022-10-29T02:08:46.194Z,15.82
2022-10-29T02:11:26.251Z,15.84
2022-10-29T02:13:58.405Z,15.83
2022-10-29T02:16:27.190Z,15.83
2022-10-29T02:18:53.437Z,15.82
2022-10-29T02:21:20.035Z,15.83
2022-10-29T02:23:47.076Z,15.80
2022-10-29T02:26:13.871Z,15.83
2022-10-29T02:28:40.198Z,15.83
2022-10-29T02:31:06.315Z,15.86
2022-10-29T02:33:32.435Z,15.86
2022-10-29T02:35:58.976Z,15.88
2022-10-29T02:38:25.068Z,15.85
2022-10-29T02:40:51.172Z,15.85
2022-10-29T02:45:50.069Z,15.86
2022-10-29T02:48:16.197Z,15.83
2022-10-29T02:50:42.446Z,15.87
2022-10-29T02:53:08.827Z,15.87
2022-10-29T02:55:34.909Z,15.90
2022-10-29T02:58:01.262Z,15.86
2022-10-29T03:00:27.400Z,15.90
2022-10-29T03:02:53.878Z,15.92
2022-10-29T03:05:20.511Z,15.90
2022-10-29T03:07:46.627Z,15.84
2022-10-29T03:10:12.690Z,15.82
2022-10-29T03:12:39.058Z,15.83
2022-10-29T03:15:05.635Z,15.86
2022-10-29T03:17:31.812Z,15.80
2022-10-29T03:19:58.160Z,15.89
2022-10-29T03:22:24.457Z,15.91
2022-10-29T03:24:50.553Z,15.88
2022-10-29T03:27:16.847Z,15.88
2022-10-29T03:29:43.449Z,15.87
2022-10-29T03:32:09.731Z,15.81
2022-10-29T03:34:36.041Z,15.79
2022-10-29T03:37:02.412Z,15.81
2022-10-29T03:39:28.495Z,15.81
2022-10-29T03:41:54.869Z,15.82
2022-10-29T03:44:20.977Z,15.80
2022-10-29T03:46:47.059Z,15.76
2022-10-29T03:49:13.422Z,15.80
2022-10-29T03:51:39.543Z,15.76
2022-10-29T03:54:06.080Z,15.77
2022-10-29T03:56:32.235Z,15.72
2022-10-29T03:58:58.624Z,15.74
2022-10-29T04:01:24.998Z,15.74
2022-10-29T04:03:51.377Z,15.70
2022-10-29T04:06:17.703Z,15.71
2022-10-29T04:08:45.028Z,15.70
2022-10-29T04:11:12.683Z,15.69
2022-10-29T04:13:39.450Z,15.70
2022-10-29T04:16:05.770Z,15.70
2022-10-29T04:18:32.124Z,15.68
2022-10-29T04:28:17.473Z,15.69
2022-10-29T04:29:21.735Z,15.63
2022-10-29T04:31:48.557Z,15.62
2022-10-29T04:34:15.237Z,15.63
2022-10-29T04:36:41.647Z,15.62
2022-10-29T04:39:08.007Z,15.58
2022-10-29T04:41:34.401Z,15.60
2022-10-29T04:44:01.573Z,15.58
2022-10-29T04:46:28.119Z,15.57
2022-10-29T04:48:54.448Z,15.52
2022-10-29T04:51:24.214Z,15.56
2022-10-29T04:53:50.663Z,15.49
2022-10-29T04:56:17.685Z,15.52
2022-10-29T04:58:44.351Z,15.50
2022-10-29T05:01:11.174Z,15.47
2022-10-29T05:03:37.749Z,15.49
2022-10-29T05:06:05.515Z,15.47
2022-10-29T05:08:32.365Z,15.44
2022-10-29T05:11:02.618Z,15.45
2022-10-29T05:13:29.003Z,15.47
2022-10-29T05:15:55.649Z,15.47
2022-10-29T05:18:22.116Z,15.49
2022-10-29T05:20:52.257Z,15.49
2022-10-29T05:23:18.550Z,15.54
2022-10-29T05:25:48.372Z,15.52
2022-10-29T05:28:20.376Z,15.45
2022-10-29T05:30:48.670Z,15.44
2022-10-29T05:33:19.600Z,15.43
2022-10-29T05:35:46.171Z,15.41
2022-10-29T05:38:13.601Z,15.39
2022-10-29T05:40:41.851Z,15.37
2022-10-29T05:43:08.035Z,15.37
2022-10-29T05:45:34.375Z,15.36
2022-10-29T05:48:03.263Z,15.40
2022-10-29T05:50:31.449Z,15.40
2022-10-29T05:53:00.180Z,15.41
2022-10-29T05:55:28.326Z,15.48
2022-10-29T05:57:58.692Z,15.47
2022-10-29T06:00:27.699Z,15.53
2022-10-29T06:02:55.469Z,15.56
2022-10-29T06:05:22.923Z,15.61
2022-10-29T06:07:58.049Z,15.66
2022-10-29T06:10:27.580Z,15.72
2022-10-29T06:12:54.269Z,15.77
2022-10-29T06:15:21.183Z,15.78
2022-10-29T06:17:48.141Z,15.86
2022-10-29T06:20:16.381Z,15.88
2022-10-29T06:22:42.773Z,15.94
2022-10-29T06:25:09.490Z,15.97
2022-10-29T06:27:36.570Z,16.02
2022-10-29T06:30:04.361Z,16.01
2022-10-29T06:32:30.831Z,16.06
2022-10-29T06:34:57.355Z,16.12
2022-10-29T06:37:23.551Z,16.17
2022-10-29T06:39:50.401Z,16.07
2022-10-29T06:42:16.754Z,16.15
2022-10-29T06:44:43.171Z,16.23
2022-10-29T06:47:09.509Z,16.23
2022-10-29T06:49:36.041Z,16.28
2022-10-29T06:52:02.337Z,16.35
2022-10-29T06:54:29.120Z,16.40
2022-10-29T06:56:55.890Z,16.45
2022-10-29T06:59:23.770Z,16.43
2022-10-29T07:01:50.127Z,16.42
2022-10-29T07:04:17.837Z,16.43
2022-10-29T07:06:44.831Z,16.46
2022-10-29T07:09:11.192Z,16.50
2022-10-29T07:11:37.860Z,16.56
2022-10-29T07:14:09.123Z,16.64
2022-10-29T07:16:36.510Z,16.71
2022-10-29T07:19:04.487Z,16.76
2022-10-29T07:21:30.929Z,16.82
2022-10-29T07:23:57.667Z,16.80
2022-10-29T07:26:24.100Z,16.90
2022-10-29T07:28:53.771Z,16.93
2022-10-29T07:31:20.438Z,16.95
2022-10-29T07:33:47.239Z,16.94
2022-10-29T07:36:13.601Z,16.96
2022-10-29T07:38:40.168Z,16.79
2022-10-29T07:41:06.885Z,16.84
2022-10-29T07:43:35.907Z,16.81
2022-10-29T07:46:02.258Z,16.69
2022-10-29T07:48:28.818Z,16.73
2022-10-29T07:50:58.548Z,16.79
2022-10-29T07:53:25.532Z,16.83
2022-10-29T07:55:55.292Z,16.93
2022-10-29T07:58:23.110Z,16.90
2022-10-29T08:00:49.872Z,17.00
2022-10-29T08:03:16.306Z,17.00
2022-10-29T08:05:43.234Z,17.11
2022-10-29T08:08:09.795Z,17.14
2022-10-29T08:10:36.393Z,17.27
2022-10-29T08:13:05.811Z,17.31
2022-10-29T08:15:34.201Z,17.35
2022-10-29T08:18:01.087Z,17.41
2022-10-29T08:20:28.819Z,17.42
2022-10-29T08:22:58.927Z,17.53
2022-10-29T08:25:26.600Z,17.57
2022-10-29T08:28:00.747Z,17.63
2022-10-29T08:30:28.320Z,17.70
2022-10-29T08:32:54.926Z,17.67
2022-10-29T08:35:22.109Z,17.80
2022-10-29T08:37:48.867Z,17.87
2022-10-29T08:40:30.311Z,17.96
2022-10-29T08:43:32.155Z,18.06
2022-10-29T08:45:58.982Z,18.19
2022-10-29T08:48:45.814Z,18.27
2022-10-29T08:51:12.840Z,18.33
2022-10-29T08:53:45.382Z,18.38
2022-10-29T08:56:35.901Z,18.43
2022-10-29T08:59:08.502Z,18.47
2022-10-29T09:01:35.377Z,18.51
2022-10-29T09:04:03.233Z,18.55
2022-10-29T09:06:48.528Z,18.67
2022-10-29T09:09:18.146Z,18.77
2022-10-29T09:11:57.185Z,18.76
2022-10-29T09:14:45.920Z,18.88
2022-10-29T09:17:40.028Z,18.92
2022-10-29T09:20:31.361Z,18.88
2022-10-29T09:23:17.075Z,18.86
2022-10-29T09:25:49.576Z,18.93
2022-10-29T09:28:29.198Z,18.93
2022-10-29T09:31:21.457Z,19.06
2022-10-29T09:33:51.684Z,19.17
2022-10-29T09:36:21.598Z,19.23
2022-10-29T09:42:38.007Z,19.49
2022-10-29T09:45:10.600Z,19.47
2022-10-29T09:48:24.592Z,19.47
2022-10-29T09:51:09.282Z,19.51
2022-10-29T09:53:36.190Z,19.56
2022-10-29T09:56:07.034Z,19.54
2022-10-29T09:58:38.840Z,19.55
2022-10-29T10:01:05.529Z,19.53
2022-10-29T10:03:44.880Z,19.58
2022-10-29T10:06:14.814Z,19.57
2022-10-29T10:09:02.338Z,19.63
2022-10-29T10:11:38.394Z,19.75
2022-10-29T10:14:30.581Z,19.89
2022-10-29T10:16:58.440Z,19.81
2022-10-29T10:19:27.772Z,19.93
2022-10-29T10:22:04.341Z,19.92
2022-10-29T10:24:35.870Z,19.85
2022-10-29T10:27:25.443Z,19.89
2022-10-29T10:30:11.763Z,19.95
2022-10-29T10:32:38.358Z,19.95
2022-10-29T10:35:24.481Z,19.93
2022-10-29T10:37:50.872Z,19.92
2022-10-29T10:40:24.252Z,19.92
2022-10-29T10:42:55.058Z,19.98
2022-10-29T10:45:32.826Z,19.90
2022-10-29T10:48:00.411Z,19.90
2022-10-29T10:50:30.608Z,19.84
2022-10-29T10:52:58.997Z,19.87
2022-10-29T10:55:34.549Z,19.91
2022-10-29T10:58:09.152Z,19.96
2022-10-29T11:00:40.525Z,19.97
2022-10-29T11:03:19.820Z,20.00
2022-10-29T11:05:51.308Z,19.95
2022-10-29T11:08:30.136Z,20.01
2022-10-29T11:11:04.378Z,20.04
2022-10-29T11:13:32.960Z,20.05
2022-10-29T11:16:27.374Z,20.09
2022-10-29T11:19:07.757Z,20.06
2022-10-29T11:21:43.296Z,20.14
2022-10-29T11:24:44.203Z,20.07
2022-10-29T11:27:23.044Z,20.11
2022-10-29T11:30:09.060Z,20.13
2022-10-29T11:32:43.137Z,20.08
2022-10-29T11:35:18.137Z,20.08
2022-10-29T11:37:50.307Z,20.09
2022-10-29T11:40:22.993Z,20.24
2022-10-29T11:42:49.859Z,20.23
2022-10-29T11:45:53.708Z,20.36
2022-10-29T11:51:24.472Z,20.47
2022-10-29T11:54:01.953Z,20.65
2022-10-29T11:57:03.985Z,20.66
2022-10-29T11:59:57.805Z,20.35
2022-10-29T12:02:48.582Z,20.21
2022-10-29T12:05:30.581Z,20.51
2022-10-29T12:08:06.613Z,20.62
2022-10-29T12:11:02.695Z,20.47
2022-10-29T12:13:55.807Z,20.54
2022-10-29T12:16:28.211Z,20.62
2022-10-29T12:19:02.437Z,20.69
2022-10-29T12:21:38.051Z,20.52
2022-10-29T12:24:45.629Z,20.66
2022-10-29T12:27:24.976Z,20.68
2022-10-29T12:30:02.406Z,20.65
2022-10-29T12:32:41.012Z,20.76
2022-10-29T12:35:16.040Z,20.94
2022-10-29T12:38:19.018Z,20.87
2022-10-29T12:40:51.632Z,20.97
2022-10-29T12:43:30.767Z,21.09
2022-10-29T12:46:24.776Z,21.11
2022-10-29T12:48:57.182Z,21.00
2022-10-29T12:51:32.566Z,20.97
2022-10-29T12:54:19.527Z,20.77
2022-10-29T12:56:49.381Z,20.87
2022-10-29T12:59:36.512Z,20.83
2022-10-29T13:02:26.002Z,20.74
2022-10-29T13:05:10.986Z,20.81
2022-10-29T13:07:46.597Z,20.65
2022-10-29T13:10:22.088Z,20.44
2022-10-29T13:12:57.556Z,20.30
2022-10-29T13:15:30.160Z,20.42
2022-10-29T13:18:07.253Z,20.44
2022-10-29T13:20:40.320Z,20.40
2022-10-29T13:23:21.953Z,20.49
2022-10-29T13:25:50.444Z,20.59
2022-10-29T13:28:17.014Z,20.54
2022-10-29T13:30:51.930Z,20.53
2022-10-29T13:33:21.522Z,20.56
2022-10-29T13:35:55.165Z,20.54
2022-10-29T13:38:46.997Z,20.55
2022-10-29T13:41:25.047Z,20.55
2022-10-29T13:43:56.872Z,20.52
2022-10-29T13:46:46.915Z,20.53
2022-10-29T13:49:31.923Z,20.52
2022-10-29T13:52:25.437Z,20.50
2022-10-29T13:55:00.576Z,20.49
2022-10-29T13:57:36.232Z,20.47
2022-10-29T14:00:14.991Z,20.45
2022-10-29T14:03:03.751Z,20.42
2022-10-29T14:05:34.528Z,20.40
2022-10-29T14:08:11.027Z,20.40
2022-10-29T14:10:40.295Z,20.37
2022-10-29T14:13:22.008Z,20.35
2022-10-29T14:16:28.299Z,20.31
2022-10-29T14:18:55.015Z,20.26
2022-10-29T14:21:30.052Z,20.21
2022-10-29T14:24:00.460Z,20.16
2022-10-29T14:26:29.957Z,20.10
2022-10-29T14:28:56.333Z,20.03
2022-10-29T14:31:24.353Z,20.05
2022-10-29T14:33:57.694Z,20.05
2022-10-29T14:36:35.525Z,20.04
2022-10-29T14:39:23.815Z,20.01
2022-10-29T14:41:54.106Z,19.99
2022-10-29T14:44:27.166Z,19.92
2022-10-29T14:47:07.808Z,19.89
2022-10-29T14:49:39.648Z,19.87
2022-10-29T14:52:15.627Z,19.84
2022-10-29T14:54:47.776Z,19.76
2022-10-29T14:57:17.250Z,19.70
2022-10-29T14:59:53.578Z,19.64
2022-10-29T15:02:37.580Z,19.60
2022-10-29T15:05:19.726Z,19.55
2022-10-29T15:07:46.108Z,19.49
2022-10-29T15:10:20.208Z,19.43
2022-10-29T15:12:48.115Z,19.39
2022-10-29T15:15:17.225Z,19.34
2022-10-29T15:17:52.189Z,19.29
2022-10-29T15:20:41.349Z,19.27
2022-10-29T15:23:22.983Z,19.26
2022-10-29T15:25:51.724Z,19.22
2022-10-29T15:28:29.837Z,19.13
2022-10-29T15:31:00.134Z,19.08
2022-10-29T15:33:28.985Z,19.03
2022-10-29T15:35:58.971Z,18.97
2022-10-29T15:38:34.919Z,18.95
2022-10-29T15:41:34.726Z,18.90
2022-10-29T15:44:01.245Z,18.82
2022-10-29T15:46:34.352Z,18.77
2022-10-29T15:49:00.936Z,18.66
2022-10-29T15:51:28.682Z,18.61
2022-10-29T15:53:56.705Z,18.53
2022-10-29T15:56:24.029Z,18.48
2022-10-29T15:58:51.766Z,18.40
2022-10-29T16:01:18.055Z,18.33
2022-10-29T16:03:44.512Z,18.23
2022-10-29T16:06:15.511Z,18.22
2022-10-29T16:08:56.987Z,18.17
2022-10-29T16:11:23.644Z,18.12
2022-10-29T16:13:54.545Z,18.03
2022-10-29T16:16:22.888Z,17.93
2022-10-29T16:18:49.529Z,17.84
2022-10-29T16:21:19.999Z,17.75
2022-10-29T16:23:47.182Z,17.71
2022-10-29T16:26:16.476Z,17.65
2022-10-29T16:28:43.315Z,17.56
2022-10-29T16:31:19.694Z,17.48
2022-10-29T16:33:50.736Z,17.40
2022-10-29T16:36:17.204Z,17.36
2022-10-29T16:38:46.585Z,17.26
2022-10-29T16:41:14.721Z,17.22
2022-10-29T16:43:42.457Z,17.19
2022-10-29T16:46:09.728Z,17.15
2022-10-29T16:48:36.109Z,17.10
2022-10-29T16:51:04.084Z,17.08
2022-10-29T16:53:30.336Z,17.09
2022-10-29T16:55:56.559Z,17.11
2022-10-29T16:58:23.742Z,17.09
2022-10-29T17:00:50.067Z,17.02
2022-10-29T17:03:17.485Z,16.99
2022-10-29T17:05:45.578Z,16.93
2022-10-29T17:08:12.448Z,17.00
2022-10-29T17:10:39.911Z,17.03
2022-10-29T17:13:08.273Z,17.00
2022-10-29T17:15:34.571Z,16.96
2022-10-29T17:18:01.601Z,16.98
2022-10-29T17:20:30.674Z,16.99
2022-10-29T17:22:57.291Z,16.96
2022-10-29T17:25:23.557Z,16.98
2022-10-29T17:27:49.709Z,17.04
2022-10-29T17:30:16.281Z,17.00
2022-10-29T17:32:42.551Z,16.98
2022-10-29T17:35:09.127Z,16.94
2022-10-29T17:37:35.889Z,16.93
2022-10-29T17:40:06.824Z,16.91
2022-10-29T17:42:34.698Z,16.89
2022-10-29T17:45:01.406Z,16.84
2022-10-29T17:47:29.305Z,16.85
2022-10-29T17:49:56.189Z,16.85
2022-10-29T17:52:22.716Z,16.79
2022-10-29T17:54:49.011Z,16.77
2022-10-29T17:57:15.355Z,16.71
2022-10-29T17:59:41.962Z,16.67
2022-10-29T18:02:10.526Z,16.67
2022-10-29T18:04:37.331Z,16.64
2022-10-29T18:07:03.467Z,16.62
2022-10-29T18:09:30.068Z,16.58
2022-10-29T18:11:56.345Z,16.60
2022-10-29T18:14:22.699Z,16.59
2022-10-29T18:16:49.795Z,16.55
2022-10-29T18:19:16.663Z,16.51
2022-10-29T18:21:43.327Z,16.53
2022-10-29T18:24:10.584Z,16.51
2022-10-29T18:26:37.489Z,16.54
2022-10-29T18:29:09.996Z,16.53
2022-10-29T18:31:39.382Z,16.48
2022-10-29T18:34:06.894Z,16.40
2022-10-29T18:36:35.045Z,16.41
2022-10-29T18:39:01.754Z,16.40
2022-10-29T18:41:28.862Z,16.40
2022-10-29T18:43:56.495Z,16.45
2022-10-29T18:46:22.978Z,16.47
2022-10-29T18:48:50.325Z,16.41
2022-10-29T18:51:19.498Z,16.42
2022-10-29T18:53:46.232Z,16.43
2022-10-29T18:56:15.121Z,16.42
2022-10-29T18:58:42.312Z,16.41
2022-10-29T19:01:12.567Z,16.44
2022-10-29T19:03:39.595Z,16.43
2022-10-29T19:06:08.807Z,16.41
2022-10-29T19:08:37.179Z,16.37
2022-10-29T19:11:06.160Z,16.38
2022-10-29T19:13:33.436Z,16.35
2022-10-29T19:16:05.353Z,16.38
2022-10-29T19:18:33.240Z,16.34
2022-10-29T19:21:08.825Z,16.31
2022-10-29T19:23:35.621Z,16.27
2022-10-29T19:26:10.762Z,16.22
2022-10-29T19:28:40.938Z,16.15
2022-10-29T19:31:13.839Z,16.21
2022-10-29T19:33:40.665Z,16.24
2022-10-29T19:36:08.838Z,16.31
2022-10-29T19:38:35.666Z,16.27
2022-10-29T19:41:02.492Z,16.29
2022-10-29T19:43:29.601Z,16.32
2022-10-29T19:45:56.344Z,16.32
2022-10-29T19:48:23.440Z,16.36
2022-10-29T19:50:55.421Z,16.33
2022-10-29T19:53:24.220Z,16.31
2022-10-29T19:55:54.148Z,16.25
2022-10-29T19:58:22.768Z,16.27
2022-10-29T20:00:49.721Z,16.29
2022-10-29T20:03:16.962Z,16.27
2022-10-29T20:05:45.021Z,16.27
2022-10-29T20:08:15.846Z,16.25
2022-10-29T20:10:43.578Z,16.28
2022-10-29T20:13:10.094Z,16.30
2022-10-29T20:15:38.576Z,16.28
2022-10-29T20:18:05.425Z,16.34
2022-10-29T20:20:32.217Z,16.34
2022-10-29T20:22:59.051Z,16.35
2022-10-29T20:25:25.673Z,16.31
2022-10-29T20:27:52.087Z,16.28
2022-10-29T20:30:18.568Z,16.33
2022-10-29T20:32:45.001Z,16.33
2022-10-29T20:35:45.368Z,16.33
2022-10-29T20:38:22.471Z,16.34
2022-10-29T20:40:50.263Z,16.31
2022-10-29T20:43:16.478Z,16.36
2022-10-29T20:45:42.788Z,16.34
2022-10-29T20:48:09.344Z,16.32
2022-10-29T20:50:35.551Z,16.30
2022-10-29T20:53:05.242Z,16.36
2022-10-29T20:55:33.145Z,16.33
2022-10-29T20:57:59.856Z,16.32
2022-10-29T21:00:26.570Z,16.34
2022-10-29T21:02:52.772Z,16.33
2022-10-29T21:05:19.250Z,16.31
2022-10-29T21:07:45.757Z,16.30
2022-10-29T21:10:12.218Z,16.26
2022-10-29T21:12:38.623Z,16.24
2022-10-29T21:15:05.452Z,16.23
2022-10-29T21:17:32.935Z,16.22
2022-10-29T21:19:59.598Z,16.19
2022-10-29T21:22:26.016Z,16.17
2022-10-29T21:24:52.192Z,16.14
2022-10-29T21:27:18.502Z,16.11
2022-10-29T21:29:44.629Z,16.07
2022-10-29T21:32:12.973Z,16.09
2022-10-29T21:34:43.380Z,16.04
2022-10-29T21:37:09.940Z,15.97
2022-10-29T21:39:36.284Z,15.92
2022-10-29T21:42:02.823Z,15.90
2022-10-29T21:44:29.078Z,15.90
2022-10-29T21:46:55.611Z,15.88
2022-10-29T21:49:22.092Z,15.84
2022-10-29T21:51:49.262Z,15.74
2022-10-29T21:54:15.949Z,15.73
2022-10-29T21:56:42.088Z,15.74
2022-10-29T21:59:08.267Z,15.77
2022-10-29T22:01:34.743Z,15.79
2022-10-29T22:04:01.030Z,15.79
2022-10-29T22:06:27.747Z,15.78
2022-10-29T22:08:58.710Z,15.83
2022-10-29T22:11:26.434Z,15.77
2022-10-29T22:13:53.884Z,15.80
2022-10-29T22:16:21.424Z,15.82
2022-10-29T22:18:49.168Z,15.77
2022-10-29T22:21:20.738Z,15.75
2022-10-29T22:23:49.799Z,15.77
2022-10-29T22:26:17.947Z,15.78
2022-10-29T22:28:46.357Z,15.74
2022-10-29T22:31:14.007Z,15.77
2022-10-29T22:33:43.969Z,15.79
2022-10-29T22:36:16.349Z,15.75
2022-10-29T22:38:43.436Z,15.74
2022-10-29T22:41:12.269Z,15.76
2022-10-29T22:43:38.497Z,15.68
2022-10-29T22:46:06.363Z,15.68
2022-10-29T22:48:32.922Z,15.66
2022-10-29T22:51:01.354Z,15.61
2022-10-29T22:53:28.079Z,15.62
2022-10-29T22:55:54.472Z,15.62
2022-10-29T22:58:21.167Z,15.57
2022-10-29T23:00:47.675Z,15.59
2022-10-29T23:03:13.884Z,15.63
2022-10-29T23:05:40.108Z,15.58
2022-10-29T23:08:06.420Z,15.58
2022-10-29T23:10:32.595Z,15.52
2022-10-29T23:12:58.663Z,15.49
2022-10-29T23:15:24.999Z,15.49
2022-10-29T23:17:54.444Z,15.46
2022-10-29T23:20:20.740Z,15.51
2022-10-29T23:22:48.050Z,15.46
2022-10-29T23:25:14.257Z,15.44
2022-10-29T23:27:40.333Z,15.37
2022-10-29T23:30:07.221Z,15.36
2022-10-29T23:32:33.447Z,15.31
2022-10-29T23:35:00.259Z,15.33
2022-10-29T23:37:27.550Z,15.40
2022-10-29T23:39:53.706Z,15.44
2022-10-29T23:42:19.864Z,15.43
2022-10-29T23:44:46.198Z,15.48
2022-10-29T23:47:12.297Z,15.47
2022-10-29T23:49:38.408Z,15.43
2022-10-29T23:52:04.710Z,15.44
2022-10-29T23:54:31.006Z,15.44
2022-10-29T23:56:57.220Z,15.42
2022-10-29T23:59:23.520Z,15.44
